Time;durP1;ratioP1;P1;durP2;ratioP2;P2;SDS_P1;SDS_P2;PMS_P1;PMS_P2;Temp;Humidity;BMP_temperature;BMP_pressure;BME280_temperature;BME280_humidity;BME280_pressure;Samples;Min_cycle;Max_cycle;Signal;HPM_P1;HPM_P2
2022/07/16 00:02:59;;;;;;;4.32;1.77;;;20.80;70.80;;;;;;5051336;28;20060;-88
2022/07/16 00:05:25;;;;;;;3.03;1.80;;;20.80;71.10;;;;;;5041128;28;20025;-87
2022/07/16 00:07:54;;;;;;;3.90;1.77;;;20.80;71.30;;;;;;5059909;28;20031;-88
2022/07/16 00:10:27;;;;;;;3.38;1.65;;;20.80;71.30;;;;;;5049120;28;20037;-88
2022/07/16 00:12:53;;;;;;;4.00;1.85;;;20.80;71.60;;;;;;5056963;28;20017;-88
2022/07/16 00:15:19;;;;;;;3.47;2.00;;;20.80;71.90;;;;;;5058164;28;20364;-88
2022/07/16 00:17:45;;;;;;;4.15;1.88;;;20.80;72.00;;;;;;5063182;28;20032;-89
2022/07/16 00:20:11;;;;;;;3.80;2.03;;;20.70;72.00;;;;;;5064129;28;20017;-87
2022/07/16 00:22:45;;;;;;;3.45;2.15;;;20.70;72.00;;;;;;5070138;28;20032;-86
2022/07/16 00:25:11;;;;;;;4.10;2.35;;;20.70;72.10;;;;;;5055268;28;20006;-86
2022/07/16 00:27:36;;;;;;;3.42;1.88;;;20.70;72.20;;;;;;5068604;28;20016;-89
2022/07/16 00:30:02;;;;;;;3.20;1.77;;;20.70;72.10;;;;;;5054826;28;20041;-88
2022/07/16 00:32:28;;;;;;;2.20;1.63;;;20.60;72.30;;;;;;5064591;28;20031;-87
2022/07/16 00:34:54;;;;;;;6.78;2.20;;;20.60;72.20;;;;;;5070334;28;20554;-88
2022/07/16 00:37:19;;;;;;;7.43;2.30;;;20.60;72.40;;;;;;5050596;28;20052;-87
2022/07/16 00:39:45;;;;;;;6.32;2.13;;;20.60;72.50;;;;;;5021602;28;20130;-90
2022/07/16 00:42:11;;;;;;;4.00;2.25;;;20.60;72.60;;;;;;5027740;28;20028;-86
2022/07/16 00:44:37;;;;;;;4.00;2.42;;;20.60;72.70;;;;;;5037910;28;20101;-87
2022/07/16 00:47:03;;;;;;;5.15;2.50;;;20.60;73.00;;;;;;5039564;28;20386;-87
2022/07/16 00:49:28;;;;;;;6.15;2.80;;;20.50;73.00;;;;;;5043341;28;20088;-87
2022/07/16 00:52:01;;;;;;;4.07;2.55;;;20.50;73.20;;;;;;5033171;28;20836;-86
2022/07/16 00:54:27;;;;;;;7.28;3.08;;;20.50;73.40;;;;;;5044492;28;20479;-87
2022/07/16 00:56:53;;;;;;;4.78;2.40;;;20.50;73.70;;;;;;5047605;28;20017;-87
2022/07/16 00:59:18;;;;;;;5.15;2.45;;;20.50;73.90;;;;;;5034064;28;20033;-87
2022/07/16 01:01:47;;;;;;;6.25;2.67;;;20.50;74.30;;;;;;5047127;28;20025;-87
2022/07/16 01:04:15;;;;;;;5.03;2.60;;;20.40;74.30;;;;;;5053404;28;20029;-87
2022/07/16 01:06:43;;;;;;;4.50;2.40;;;20.40;74.50;;;;;;5052775;28;20116;-88
2022/07/16 01:09:10;;;;;;;5.03;2.95;;;20.40;74.80;;;;;;5049447;28;20082;-87
2022/07/16 01:11:39;;;;;;;6.07;2.85;;;20.40;74.90;;;;;;5053234;28;20017;-89
2022/07/16 01:14:07;;;;;;;6.50;2.83;;;20.40;75.20;;;;;;5054428;28;20033;-87
2022/07/16 01:16:33;;;;;;;6.38;2.60;;;20.40;75.50;;;;;;5052691;28;20036;-87
2022/07/16 01:19:00;;;;;;;6.53;2.80;;;20.40;75.50;;;;;;5035799;28;20474;-89
2022/07/16 01:21:26;;;;;;;5.32;2.45;;;20.40;75.80;;;;;;5053927;28;20027;-89
2022/07/16 01:23:51;;;;;;;5.80;2.65;;;20.40;76.00;;;;;;5052763;28;20532;-89
2022/07/16 01:26:17;;;;;;;5.35;2.95;;;20.40;76.10;;;;;;5036330;28;20029;-89
2022/07/16 01:28:43;;;;;;;7.57;2.83;;;20.30;76.40;;;;;;5053987;28;20039;-89
2022/07/16 01:31:09;;;;;;;5.60;2.65;;;20.30;76.50;;;;;;5052512;28;20033;-89
2022/07/16 01:33:38;;;;;;;5.75;2.75;;;20.30;76.70;;;;;;5052408;28;20113;-86
2022/07/16 01:36:14;;;;;;;6.32;2.90;;;20.30;76.80;;;;;;5053540;28;20061;-87
2022/07/16 01:38:42;;;;;;;5.82;2.50;;;20.30;77.20;;;;;;5052685;28;20041;-87
2022/07/16 01:41:09;;;;;;;7.18;2.58;;;20.30;77.30;;;;;;5052048;28;20036;-86
2022/07/16 01:43:35;;;;;;;6.63;2.70;;;20.20;77.30;;;;;;5052515;28;20031;-86
2022/07/16 01:46:01;;;;;;;7.22;2.63;;;20.30;77.50;;;;;;5052156;28;20025;-86
2022/07/16 01:48:29;;;;;;;6.93;3.35;;;20.20;77.50;;;;;;5035558;28;20128;-85
2022/07/16 01:50:55;;;;;;;3.42;2.05;;;20.20;77.70;;;;;;5053337;28;20017;-87
2022/07/16 01:53:21;;;;;;;4.88;2.63;;;20.20;78.00;;;;;;5053349;28;20561;-87
2022/07/16 01:55:47;;;;;;;6.53;2.40;;;20.20;78.20;;;;;;5035450;28;20036;-86
2022/07/16 01:58:14;;;;;;;5.10;2.50;;;20.20;78.40;;;;;;5035240;28;20022;-87
2022/07/16 02:00:43;;;;;;;5.72;2.40;;;20.20;78.50;;;;;;5035390;28;20036;-86
2022/07/16 02:03:09;;;;;;;6.35;2.70;;;20.20;78.70;;;;;;5053473;28;20049;-86
2022/07/16 02:05:35;;;;;;;8.85;2.70;;;20.20;78.80;;;;;;5052722;28;20021;-88
2022/07/16 02:08:03;;;;;;;7.90;2.35;;;20.20;78.80;;;;;;5035663;28;20025;-88
2022/07/16 02:10:29;;;;;;;7.20;2.60;;;20.20;79.00;;;;;;5035853;28;20025;-87
2022/07/16 02:12:54;;;;;;;4.53;2.20;;;20.10;79.10;;;;;;5035588;28;20029;-88
2022/07/16 02:15:20;;;;;;;3.83;2.30;;;20.10;79.40;;;;;;5035545;28;20520;-87
2022/07/16 02:17:46;;;;;;;7.32;2.33;;;20.10;79.50;;;;;;5054755;28;20021;-87
2022/07/16 02:20:12;;;;;;;4.20;2.10;;;20.10;79.70;;;;;;5038650;28;20109;-87
2022/07/16 02:22:38;;;;;;;5.43;2.47;;;20.10;79.80;;;;;;5039036;28;20208;-87
2022/07/16 02:25:06;;;;;;;3.15;2.10;;;20.10;79.80;;;;;;5055643;28;20029;-88
2022/07/16 02:27:31;;;;;;;5.22;2.40;;;20.10;79.90;;;;;;5055664;28;20017;-87
2022/07/16 02:29:59;;;;;;;4.22;2.55;;;20.10;80.00;;;;;;5055880;28;20032;-87
2022/07/16 02:32:25;;;;;;;4.88;2.50;;;20.10;80.10;;;;;;5039367;28;20032;-87
2022/07/16 02:34:51;;;;;;;4.15;2.30;;;20.10;80.40;;;;;;5056892;28;20025;-86
2022/07/16 02:37:16;;;;;;;3.58;2.13;;;20.10;80.40;;;;;;5055427;28;20049;-87
2022/07/16 02:39:42;;;;;;;4.60;2.30;;;20.00;80.40;;;;;;5038850;28;20029;-87
2022/07/16 02:42:07;;;;;;;6.05;2.25;;;20.00;80.60;;;;;;5055943;28;20256;-87
2022/07/16 02:44:33;;;;;;;5.95;2.63;;;20.00;80.70;;;;;;5056573;28;20097;-89
2022/07/16 02:46:59;;;;;;;6.68;2.42;;;20.00;80.90;;;;;;5065121;28;20043;-86
2022/07/16 02:49:25;;;;;;;5.95;2.67;;;20.00;80.80;;;;;;5079785;28;20033;-86
2022/07/16 02:51:51;;;;;;;6.25;2.95;;;20.00;80.90;;;;;;5079710;28;20017;-86
2022/07/16 02:54:17;;;;;;;4.97;2.67;;;20.00;80.90;;;;;;5079496;28;20052;-89
2022/07/16 02:56:42;;;;;;;5.40;2.47;;;19.90;80.90;;;;;;5062840;28;20013;-89
2022/07/16 02:59:08;;;;;;;6.43;2.60;;;19.90;81.00;;;;;;5062762;28;20037;-93
2022/07/16 03:01:33;;;;;;;3.90;2.38;;;19.90;81.20;;;;;;5079466;28;20025;-87
2022/07/16 03:03:59;;;;;;;7.15;3.13;;;19.90;81.40;;;;;;5061135;28;20037;-87
2022/07/16 03:06:25;;;;;;;4.70;2.35;;;19.90;81.60;;;;;;5041693;28;20029;-87
2022/07/16 03:08:50;;;;;;;4.93;2.40;;;19.90;81.70;;;;;;5055398;28;20111;-87
2022/07/16 03:11:16;;;;;;;4.78;2.35;;;19.90;81.90;;;;;;5038685;28;20035;-87
2022/07/16 03:13:42;;;;;;;6.00;2.90;;;19.90;82.20;;;;;;5038778;28;20033;-88
2022/07/16 03:16:08;;;;;;;3.85;2.40;;;19.90;82.40;;;;;;5055337;28;20033;-88
2022/07/16 03:18:34;;;;;;;6.18;2.70;;;19.80;82.50;;;;;;5055227;28;20037;-87
2022/07/16 03:20:59;;;;;;;6.93;2.80;;;19.80;82.70;;;;;;5038443;28;20026;-89
2022/07/16 03:23:25;;;;;;;7.00;3.17;;;19.80;82.80;;;;;;5054345;28;20395;-88
2022/07/16 03:25:51;;;;;;;4.80;2.60;;;19.80;83.00;;;;;;5037884;28;20025;-88
2022/07/16 03:28:16;;;;;;;6.03;2.55;;;19.80;83.20;;;;;;5037452;28;20029;-88
2022/07/16 03:30:42;;;;;;;4.18;2.42;;;19.80;83.40;;;;;;5054754;28;20052;-88
2022/07/16 03:33:08;;;;;;;7.90;3.10;;;19.70;83.50;;;;;;5054477;28;20036;-88
2022/07/16 03:35:33;;;;;;;5.82;3.00;;;19.70;83.80;;;;;;5054404;28;20024;-88
2022/07/16 03:40:43;;;;;;;4.18;2.50;;;19.70;84.20;;;;;;5055593;28;20131;-88
2022/07/16 03:43:09;;;;;;;8.50;3.10;;;19.70;84.50;;;;;;5037776;28;20049;-88
2022/07/16 03:45:35;;;;;;;9.32;3.92;;;19.70;84.60;;;;;;5054300;28;20360;-87
2022/07/16 03:48:01;;;;;;;7.47;3.17;;;19.60;84.90;;;;;;5055175;28;20383;-87
2022/07/16 03:50:26;;;;;;;6.75;2.88;;;19.60;85.10;;;;;;5037316;28;20060;-88
2022/07/16 03:52:52;;;;;;;6.30;3.25;;;19.60;85.30;;;;;;5053935;28;20036;-88
2022/07/16 03:55:17;;;;;;;7.53;3.10;;;19.60;85.70;;;;;;5054858;28;20414;-88
2022/07/16 03:57:44;;;;;;;5.55;3.08;;;19.60;85.90;;;;;;5053874;28;20029;-87
2022/07/16 04:00:11;;;;;;;5.25;3.30;;;19.60;86.30;;;;;;5053756;28;20421;-87
2022/07/16 04:02:37;;;;;;;7.60;3.33;;;19.50;86.50;;;;;;5053447;28;20394;-88
2022/07/16 04:05:03;;;;;;;6.65;3.60;;;19.60;86.70;;;;;;5053790;28;20195;-87
2022/07/16 04:07:29;;;;;;;5.13;2.95;;;19.50;86.90;;;;;;5037005;28;20479;-88
2022/07/16 04:09:54;;;;;;;6.75;3.50;;;19.50;87.20;;;;;;5053853;28;20032;-87
2022/07/16 04:12:23;;;;;;;6.00;3.28;;;19.50;87.50;;;;;;5054752;28;20025;-88
2022/07/16 04:14:53;;;;;;;4.90;3.03;;;19.50;87.80;;;;;;5054808;28;20017;-88
2022/07/16 04:17:19;;;;;;;6.35;3.60;;;19.50;88.20;;;;;;5053482;28;20070;-88
2022/07/16 04:19:44;;;;;;;5.85;3.55;;;19.50;88.60;;;;;;5036981;28;20382;-88
2022/07/16 04:22:10;;;;;;;9.98;3.95;;;19.50;89.50;;;;;;5054309;28;20025;-90
2022/07/16 04:24:36;;;;;;;6.00;3.83;;;19.50;89.20;;;;;;5053406;28;20048;-88
2022/07/16 04:27:02;;;;;;;6.38;3.47;;;19.50;89.70;;;;;;5036856;28;20040;-88
2022/07/16 04:29:27;;;;;;;7.97;3.53;;;19.50;90.00;;;;;;5036819;28;20354;-88
2022/07/16 04:31:53;;;;;;;9.57;3.47;;;19.40;90.10;;;;;;5053365;28;20094;-88
2022/07/16 04:34:19;;;;;;;6.88;3.22;;;19.40;90.30;;;;;;5054486;28;20025;-88
2022/07/16 04:36:44;;;;;;;6.25;2.90;;;19.50;90.50;;;;;;5053244;28;20063;-87
2022/07/16 04:39:10;;;;;;;7.45;3.20;;;19.50;90.70;;;;;;5036570;28;20037;-88
2022/07/16 04:41:36;;;;;;;6.70;3.30;;;19.50;90.90;;;;;;5037833;28;20032;-88
2022/07/16 04:44:02;;;;;;;6.95;3.00;;;19.50;91.10;;;;;;5069016;28;20061;-88
2022/07/16 04:46:27;;;;;;;5.53;2.60;;;19.50;91.20;;;;;;5046678;28;20025;-88
2022/07/16 04:48:53;;;;;;;6.18;2.50;;;19.50;91.40;;;;;;5037299;28;20020;-88
2022/07/16 04:51:19;;;;;;;4.43;2.30;;;19.50;91.60;;;;;;5053218;28;20475;-88
2022/07/16 04:53:44;;;;;;;9.65;2.80;;;19.50;91.70;;;;;;5053164;28;20025;-88
2022/07/16 04:56:10;;;;;;;5.90;2.42;;;19.50;91.90;;;;;;5036416;28;20029;-88
2022/07/16 04:58:35;;;;;;;5.65;2.70;;;19.50;92.10;;;;;;5052493;28;20037;-87
2022/07/16 05:01:01;;;;;;;6.05;3.22;;;19.60;92.20;;;;;;5036227;28;20392;-87
2022/07/16 05:03:27;;;;;;;6.18;2.45;;;19.50;92.30;;;;;;5036039;28;20467;-87
2022/07/16 05:05:52;;;;;;;7.60;2.55;;;19.50;92.40;;;;;;5036117;28;20029;-88
2022/07/16 05:08:18;;;;;;;6.25;3.03;;;19.50;92.50;;;;;;5036182;28;20056;-89
2022/07/16 05:10:44;;;;;;;6.47;2.50;;;19.50;92.60;;;;;;5052594;28;20033;-88
2022/07/16 05:13:10;;;;;;;7.85;2.40;;;19.50;92.80;;;;;;5053922;28;20027;-88
2022/07/16 05:15:36;;;;;;;4.90;2.22;;;19.50;92.90;;;;;;5052823;28;20449;-88
2022/07/16 05:18:03;;;;;;;4.47;2.40;;;19.50;93.10;;;;;;5053457;28;20056;-88
2022/07/16 05:20:29;;;;;;;5.07;2.25;;;19.50;93.30;;;;;;5035738;28;20064;-88
2022/07/16 05:22:55;;;;;;;5.95;2.13;;;19.50;93.40;;;;;;5052687;28;20021;-88
2022/07/16 05:25:21;;;;;;;4.57;2.00;;;19.60;93.80;;;;;;5053756;28;20459;-88
2022/07/16 05:27:47;;;;;;;5.93;1.98;;;19.60;93.70;;;;;;5036095;28;20068;-88
2022/07/16 05:30:13;;;;;;;6.00;2.40;;;19.50;93.80;;;;;;5053047;28;20036;-87
2022/07/16 05:32:42;;;;;;;3.08;2.00;;;19.60;94.00;;;;;;5053768;28;20028;-88
2022/07/16 05:35:13;;;;;;;3.10;1.88;;;19.60;94.10;;;;;;5053955;28;20029;-88
2022/07/16 05:37:39;;;;;;;4.25;1.55;;;19.60;94.20;;;;;;5053797;28;20049;-88
2022/07/16 05:40:05;;;;;;;5.40;1.90;;;19.60;94.40;;;;;;5052372;28;20033;-88
2022/07/16 05:42:31;;;;;;;3.90;1.75;;;19.50;94.40;;;;;;5052319;28;20048;-88
2022/07/16 05:44:57;;;;;;;4.65;1.70;;;19.60;94.60;;;;;;5036016;28;20102;-88
2022/07/16 05:47:25;;;;;;;4.82;1.92;;;19.60;94.70;;;;;;5035699;28;20051;-88
2022/07/16 05:49:51;;;;;;;5.82;1.95;;;19.60;94.90;;;;;;5052095;28;20053;-87
2022/07/16 05:52:16;;;;;;;6.68;1.95;;;19.60;95.00;;;;;;5055438;28;20021;-88
2022/07/16 05:54:44;;;;;;;5.28;1.73;;;19.60;95.20;;;;;;5039840;28;20481;-88
2022/07/16 05:57:09;;;;;;;3.45;1.60;;;19.60;95.30;;;;;;5056343;28;20036;-88
2022/07/16 05:59:35;;;;;;;4.75;1.73;;;19.70;95.30;;;;;;5039722;28;20124;-87
2022/07/16 06:02:01;;;;;;;4.00;1.45;;;19.70;95.50;;;;;;5039980;28;20071;-88
2022/07/16 06:04:27;;;;;;;4.15;1.40;;;19.70;95.60;;;;;;5056416;28;20382;-88
2022/07/16 06:06:52;;;;;;;4.43;1.80;;;19.70;95.70;;;;;;5056543;28;20112;-88
2022/07/16 06:09:18;;;;;;;3.83;1.35;;;19.70;95.60;;;;;;5056254;28;20120;-88
2022/07/16 06:11:46;;;;;;;4.43;1.20;;;19.80;95.80;;;;;;5056150;28;20550;-88
2022/07/16 06:14:11;;;;;;;3.20;1.20;;;19.80;95.70;;;;;;5039889;28;20112;-88
2022/07/16 06:16:40;;;;;;;3.83;1.23;;;19.80;95.20;;;;;;5056077;28;20127;-88
2022/07/16 06:19:08;;;;;;;5.38;1.42;;;19.80;95.00;;;;;;5056031;28;20507;-87
2022/07/16 06:21:34;;;;;;;4.43;1.50;;;19.80;94.90;;;;;;5056330;28;20359;-88
2022/07/16 06:24:00;;;;;;;3.20;1.15;;;19.80;94.70;;;;;;5056077;28;20021;-88
2022/07/16 06:26:25;;;;;;;4.53;1.15;;;19.90;94.60;;;;;;5039377;28;20025;-90
2022/07/16 06:28:51;;;;;;;3.38;1.23;;;19.90;94.50;;;;;;5056435;28;20044;-88
2022/07/16 06:31:17;;;;;;;3.17;1.30;;;19.90;94.20;;;;;;5053422;28;20089;-88
2022/07/16 06:33:42;;;;;;;3.75;1.15;;;19.90;94.20;;;;;;5080226;28;20012;-90
2022/07/16 06:36:08;;;;;;;4.30;1.10;;;19.90;93.90;;;;;;5080102;28;20037;-87
2022/07/16 06:38:34;;;;;;;5.22;1.90;;;20.00;93.90;;;;;;5063095;28;20037;-89
2022/07/16 06:40:59;;;;;;;6.78;1.60;;;20.00;94.00;;;;;;5063483;28;20021;-91
2022/07/16 06:43:25;;;;;;;3.25;1.23;;;20.00;93.90;;;;;;5080736;28;20009;-89
2022/07/16 06:45:51;;;;;;;2.50;1.20;;;20.10;93.70;;;;;;5080029;28;20017;-88
2022/07/16 06:48:16;;;;;;;7.25;1.30;;;20.10;93.50;;;;;;5057552;28;20370;-87
2022/07/16 06:50:42;;;;;;;3.03;1.10;;;20.10;93.40;;;;;;5056850;28;20388;-88
2022/07/16 06:53:08;;;;;;;4.97;1.25;;;20.20;93.10;;;;;;5057460;28;20665;-89
2022/07/16 06:55:33;;;;;;;3.90;1.30;;;20.20;92.90;;;;;;5055913;28;20444;-88
2022/07/16 06:57:59;;;;;;;5.03;1.40;;;20.30;92.60;;;;;;5055875;28;20432;-89
2022/07/16 07:00:25;;;;;;;3.75;1.10;;;20.30;92.10;;;;;;5056156;28;20060;-89
2022/07/16 07:02:50;;;;;;;3.88;1.05;;;20.30;91.90;;;;;;5038180;28;20554;-88
2022/07/16 07:05:16;;;;;;;4.57;1.00;;;20.30;91.50;;;;;;5055774;28;20028;-89
2022/07/16 07:07:42;;;;;;;3.78;1.27;;;20.40;91.20;;;;;;5055618;28;20017;-88
2022/07/16 07:10:08;;;;;;;2.85;0.98;;;20.50;91.00;;;;;;5055256;28;20078;-88
2022/07/16 07:12:34;;;;;;;3.95;1.25;;;20.50;90.90;;;;;;5055078;28;20524;-88
2022/07/16 07:15:00;;;;;;;4.65;1.17;;;20.60;90.60;;;;;;5055176;28;20025;-88
2022/07/16 07:17:25;;;;;;;3.17;1.08;;;20.60;90.30;;;;;;5054586;28;20035;-89
2022/07/16 07:19:51;;;;;;;4.65;1.20;;;20.70;90.30;;;;;;5055161;28;20179;-88
2022/07/16 07:22:17;;;;;;;3.08;1.00;;;20.70;90.10;;;;;;5058626;28;20029;-82
2022/07/16 07:24:42;;;;;;;3.72;1.08;;;20.80;90.10;;;;;;5054192;28;20024;-82
2022/07/16 07:27:08;;;;;;;3.70;1.10;;;20.90;89.40;;;;;;5054243;28;20066;-82
2022/07/16 07:29:34;;;;;;;2.67;0.98;;;21.00;89.00;;;;;;5055045;28;20120;-81
2022/07/16 07:31:59;;;;;;;2.60;1.17;;;21.00;88.60;;;;;;5036304;28;20036;-83
2022/07/16 07:34:25;;;;;;;2.25;0.90;;;21.10;87.80;;;;;;5053413;28;20105;-87
2022/07/16 07:36:51;;;;;;;4.15;1.10;;;21.10;86.90;;;;;;5055175;28;20644;-88
2022/07/16 07:39:17;;;;;;;5.10;1.15;;;21.20;86.50;;;;;;5057554;28;20036;-91
2022/07/16 07:41:42;;;;;;;1.75;0.85;;;21.20;85.50;;;;;;5055901;28;20040;-92
2022/07/16 07:44:09;;;;;;;2.40;0.90;;;21.30;84.80;;;;;;5040030;28;20029;-90
2022/07/16 07:46:36;;;;;;;5.75;1.15;;;21.30;84.40;;;;;;5054478;28;20643;-90
2022/07/16 07:49:02;;;;;;;3.58;1.20;;;21.40;84.50;;;;;;5038620;28;20025;-90
2022/07/16 07:51:28;;;;;;;3.97;1.90;;;21.50;84.50;;;;;;5056259;28;20104;-91
2022/07/16 07:53:54;;;;;;;3.75;1.63;;;21.50;84.20;;;;;;5057268;28;20159;-91
2022/07/16 07:56:19;;;;;;;3.22;1.40;;;21.60;83.90;;;;;;5057263;28;20079;-92
2022/07/16 07:58:45;;;;;;;2.72;1.17;;;21.70;83.50;;;;;;5039289;28;20544;-90
2022/07/16 08:01:11;;;;;;;5.28;1.20;;;21.70;82.80;;;;;;5038558;28;20061;-90
2022/07/16 08:03:37;;;;;;;5.25;1.38;;;21.80;82.10;;;;;;5037930;28;20021;-91
2022/07/16 08:06:03;;;;;;;3.97;1.48;;;21.80;81.20;;;;;;5038345;28;20036;-91
2022/07/16 08:08:28;;;;;;;3.13;1.00;;;21.90;81.00;;;;;;5055493;28;20029;-89
2022/07/16 08:10:54;;;;;;;3.83;0.90;;;22.00;80.90;;;;;;5038164;28;20032;-90
2022/07/16 08:13:20;;;;;;;2.67;1.10;;;22.00;80.40;;;;;;5038063;28;20471;-90
2022/07/16 08:15:45;;;;;;;2.97;1.08;;;22.10;80.00;;;;;;5054830;28;20033;-92
2022/07/16 08:18:11;;;;;;;3.67;1.00;;;22.20;79.60;;;;;;5054853;28;20021;-91
2022/07/16 08:20:38;;;;;;;8.48;1.55;;;22.20;78.50;;;;;;5054713;28;20057;-90
2022/07/16 08:23:04;;;;;;;4.07;1.15;;;22.30;78.00;;;;;;5054629;28;20025;-92
2022/07/16 08:25:45;;;;;;;4.07;1.00;;;22.30;77.00;;;;;;5038186;28;20099;-89
2022/07/16 08:28:15;;;;;;;3.88;1.13;;;22.30;76.60;;;;;;5054573;28;20040;-89
2022/07/16 08:30:42;;;;;;;2.10;0.90;;;22.40;75.90;;;;;;5038200;28;20037;-90
2022/07/16 08:33:08;;;;;;;2.50;1.00;;;22.40;75.50;;;;;;5055581;28;20028;-91
2022/07/16 08:35:34;;;;;;;3.75;1.00;;;22.40;75.20;;;;;;5054401;28;20029;-91
2022/07/16 08:38:00;;;;;;;3.33;1.05;;;22.50;74.90;;;;;;5054511;28;20060;-82
2022/07/16 08:40:26;;;;;;;2.88;0.82;;;22.50;74.40;;;;;;5052190;28;20033;-84
2022/07/16 08:42:53;;;;;;;4.63;1.33;;;22.60;74.20;;;;;;5035936;28;20035;-82
2022/07/16 08:45:22;;;;;;;2.55;0.80;;;22.60;73.90;;;;;;5054094;28;20033;-84
2022/07/16 08:47:50;;;;;;;3.00;1.10;;;22.60;73.60;;;;;;5052651;28;20029;-83
2022/07/16 08:50:16;;;;;;;4.47;1.20;;;22.70;73.90;;;;;;5053923;28;20105;-83
2022/07/16 08:52:47;;;;;;;3.10;1.10;;;22.80;74.10;;;;;;5053557;28;20116;-83
2022/07/16 08:55:12;;;;;;;;;;;22.80;73.80;;;;;;5054112;28;20021;-82
2022/07/16 08:57:40;;;;;;;3.22;1.10;;;22.90;74.40;;;;;;5052263;28;19962;-83
2022/07/16 09:00:11;;;;;;;4.05;1.13;;;22.90;73.70;;;;;;5052101;28;20378;-82
2022/07/16 09:02:37;;;;;;;5.82;1.17;;;23.00;73.70;;;;;;5052306;28;20021;-83
2022/07/16 09:05:04;;;;;;;3.83;1.00;;;23.00;73.50;;;;;;5052308;28;20029;-83
2022/07/16 09:07:29;;;;;;;5.25;1.40;;;23.10;73.00;;;;;;5052141;28;20017;-83
2022/07/16 09:09:55;;;;;;;3.20;0.95;;;23.10;72.10;;;;;;5051897;28;20035;-83
2022/07/16 09:12:34;;;;;;;4.75;1.30;;;23.20;71.70;;;;;;5035556;28;20378;-83
2022/07/16 09:15:20;;;;;;;3.50;1.05;;;23.20;71.70;;;;;;5051966;28;20032;-82
2022/07/16 09:18:05;;;;;;;1.65;0.60;;;23.30;71.00;;;;;;5053355;28;20025;-83
2022/07/16 09:20:31;;;;;;;1.90;0.80;;;23.30;70.50;;;;;;5054651;28;20068;-83
2022/07/16 09:22:56;;;;;;;3.70;0.98;;;23.30;70.50;;;;;;5051806;28;20052;-83
2022/07/16 09:25:22;;;;;;;3.20;0.90;;;23.40;69.40;;;;;;5057990;28;20030;-82
2022/07/16 09:27:57;;;;;;;3.83;1.05;;;23.40;68.10;;;;;;5051814;28;20025;-83
2022/07/16 09:30:24;;;;;;;5.60;1.02;;;23.40;68.20;;;;;;5035700;28;20029;-83
2022/07/16 09:32:51;;;;;;;2.58;1.00;;;23.50;68.80;;;;;;5051728;28;20091;-84
2022/07/16 09:35:18;;;;;;;3.85;0.95;;;23.60;69.00;;;;;;5052012;28;20057;-83
2022/07/16 09:37:53;;;;;;;3.78;1.10;;;23.60;67.60;;;;;;5052921;28;20099;-80
2022/07/16 09:40:52;;;;;;;2.67;0.70;;;23.70;67.40;;;;;;5051810;28;20029;-81
2022/07/16 09:43:20;;;;;;;3.78;0.80;;;23.80;68.00;;;;;;5030145;28;20044;-81
2022/07/16 09:45:49;;;;;;;4.20;0.85;;;23.80;67.60;;;;;;5051695;28;20025;-81
2022/07/16 09:48:21;;;;;;;2.83;1.00;;;23.90;67.00;;;;;;5051624;28;20108;-82
2022/07/16 09:50:47;;;;;;;4.15;1.20;;;23.90;66.60;;;;;;5051694;28;20021;-82
2022/07/16 09:53:14;;;;;;;7.50;0.80;;;23.90;66.00;;;;;;5051523;28;20112;-82
2022/07/16 09:56:00;;;;;;;4.93;1.30;;;24.00;65.70;;;;;;5034905;28;20083;-83
2022/07/16 09:58:26;;;;;;;3.75;0.90;;;24.10;64.90;;;;;;5052923;28;20024;-81
2022/07/16 10:00:53;;;;;;;2.30;0.80;;;24.10;64.20;;;;;;5051813;28;20025;-82
2022/07/16 10:03:19;;;;;;;1.95;0.65;;;24.20;63.80;;;;;;5053116;28;20108;-81
2022/07/16 10:05:45;;;;;;;5.35;1.17;;;24.20;63.80;;;;;;5051849;28;20029;-81
2022/07/16 10:08:11;;;;;;;3.83;0.82;;;24.20;63.30;;;;;;5051687;28;20102;-82
2022/07/16 10:10:36;;;;;;;2.42;0.80;;;24.30;63.30;;;;;;5053375;28;20533;-82
2022/07/16 10:13:02;;;;;;;3.10;0.95;;;24.30;63.00;;;;;;5036483;28;20028;-81
2022/07/16 10:15:28;;;;;;;2.83;0.93;;;24.30;63.30;;;;;;5043703;28;20032;-81
2022/07/16 10:17:54;;;;;;;1.95;0.80;;;24.40;63.40;;;;;;5069988;28;20103;-85
2022/07/16 10:20:20;;;;;;;3.70;0.80;;;24.40;62.50;;;;;;5073899;28;20021;-84
2022/07/16 10:22:49;;;;;;;2.10;0.73;;;24.50;61.50;;;;;;5074031;28;20037;-81
2022/07/16 10:25:19;;;;;;;5.25;1.27;;;24.50;60.90;;;;;;5072651;28;20455;-82
2022/07/16 10:27:46;;;;;;;3.72;1.05;;;24.50;60.90;;;;;;5069111;28;20092;-82
2022/07/16 10:30:14;;;;;;;4.15;1.10;;;24.60;60.80;;;;;;5064849;28;20143;-82
2022/07/16 10:33:06;;;;;;;3.65;0.88;;;24.70;60.60;;;;;;5058325;28;20022;-84
2022/07/16 10:35:33;;;;;;;4.20;0.90;;;24.70;60.30;;;;;;5053476;28;20052;-82
2022/07/16 10:38:27;;;;;;;4.88;0.95;;;24.70;60.40;;;;;;5053952;28;20049;-83
2022/07/16 10:41:15;;;;;;;5.50;1.20;;;24.70;59.80;;;;;;5055873;28;20106;-83
2022/07/16 10:43:42;;;;;;;2.88;1.25;;;24.70;59.60;;;;;;5055727;28;20601;-83
2022/07/16 10:46:10;;;;;;;3.15;0.80;;;24.70;59.10;;;;;;5055230;28;20498;-83
2022/07/16 10:48:39;;;;;;;3.30;1.10;;;24.70;58.40;;;;;;5054723;28;20013;-82
2022/07/16 10:51:18;;;;;;;2.63;0.77;;;24.80;58.60;;;;;;5056796;28;20386;-82
2022/07/16 10:53:57;;;;;;;4.93;1.10;;;24.80;59.10;;;;;;5039520;28;20463;-85
2022/07/16 10:56:39;;;;;;;4.15;1.00;;;24.90;59.70;;;;;;5054504;28;20024;-82
2022/07/16 10:59:07;;;;;;;5.20;0.95;;;24.90;59.70;;;;;;5055429;28;20116;-82
2022/07/16 11:01:35;;;;;;;5.13;0.85;;;25.00;59.30;;;;;;5055096;28;20017;-81
2022/07/16 11:04:02;;;;;;;3.78;1.15;;;25.00;59.10;;;;;;5054238;28;20036;-81
2022/07/16 11:06:28;;;;;;;3.15;1.08;;;25.10;58.70;;;;;;5054296;28;20156;-81
2022/07/16 11:08:59;;;;;;;4.68;1.05;;;25.10;58.30;;;;;;5053532;28;20530;-81
2022/07/16 11:11:35;;;;;;;4.88;1.00;;;25.10;57.80;;;;;;5053667;28;20103;-81
2022/07/16 11:14:02;;;;;;;4.03;1.15;;;25.20;57.90;;;;;;5054159;28;20100;-80
2022/07/16 11:16:28;;;;;;;4.28;0.98;;;25.20;58.10;;;;;;5055440;28;20080;-81
2022/07/16 11:18:54;;;;;;;3.13;1.20;;;25.30;58.20;;;;;;5055158;28;20032;-80
2022/07/16 11:21:20;;;;;;;3.88;1.00;;;25.30;58.00;;;;;;5055262;28;20032;-81
2022/07/16 11:23:52;;;;;;;3.78;0.77;;;25.40;57.80;;;;;;5054509;28;20056;-81
2022/07/16 11:26:19;;;;;;;3.17;0.80;;;25.40;57.70;;;;;;5054756;28;20104;-81
2022/07/16 11:29:00;;;;;;;3.92;1.15;;;25.40;57.40;;;;;;5053344;28;20528;-81
2022/07/16 11:31:33;;;;;;;6.20;1.55;;;25.50;57.60;;;;;;5055009;28;20021;-81
2022/07/16 11:34:01;;;;;;;3.67;1.25;;;25.50;57.30;;;;;;5055464;28;20276;-81
2022/07/16 11:36:33;;;;;;;3.92;1.10;;;25.50;57.30;;;;;;5055253;28;20029;-81
2022/07/16 11:39:11;;;;;;;8.13;1.50;;;25.60;57.40;;;;;;5054833;28;20049;-82
2022/07/16 11:41:39;;;;;;;6.00;1.25;;;25.60;56.80;;;;;;5057482;28;20021;-81
2022/07/16 11:44:17;;;;;;;4.13;0.90;;;25.60;56.70;;;;;;5052305;28;20027;-81
2022/07/16 11:46:54;;;;;;;5.50;1.42;;;25.60;56.20;;;;;;5053766;28;20028;-81
2022/07/16 11:49:26;;;;;;;3.55;1.00;;;25.70;55.90;;;;;;5052883;28;20478;-93
2022/07/16 11:51:54;;;;;;;4.10;1.00;;;25.80;56.30;;;;;;5057906;28;20368;-87
2022/07/16 11:54:31;;;;;;;8.52;1.08;;;25.80;56.30;;;;;;5059907;28;20039;-95
2022/07/16 11:56:57;;;;;;;5.45;1.30;;;25.90;56.00;;;;;;5061811;28;20120;-91
2022/07/16 11:59:24;;;;;;;16.05;2.72;;;25.90;55.60;;;;;;5055821;28;20108;-94
2022/07/16 12:02:03;;;;;;;5.20;1.25;;;25.90;55.40;;;;;;5054714;28;20083;-91
2022/07/16 12:04:40;;;;;;;2.78;0.80;;;25.90;55.50;;;;;;5056026;28;20064;-92
2022/07/16 12:07:09;;;;;;;4.60;1.25;;;26.00;55.20;;;;;;5054614;28;20028;-92
2022/07/16 12:09:40;;;;;;;5.07;1.05;;;26.00;54.70;;;;;;5058583;28;20029;-88
2022/07/16 12:12:13;;;;;;;4.82;1.40;;;26.10;55.10;;;;;;5056790;28;20025;-92
2022/07/16 12:14:55;;;;;;;4.75;1.10;;;26.20;55.40;;;;;;5055203;28;20211;-93
2022/07/16 12:17:32;;;;;;;3.15;0.90;;;26.20;55.40;;;;;;5056813;28;20028;-93
2022/07/16 12:20:09;;;;;;;3.13;0.70;;;26.20;55.20;;;;;;5058234;28;20029;-96
2022/07/16 12:23:03;;;;;;;3.38;0.90;;;26.30;54.70;;;;;;5056849;28;20175;-94
2022/07/16 12:25:30;;;;;;;3.25;1.00;;;26.30;53.90;;;;;;5053822;28;20032;-93
2022/07/16 12:28:16;;;;;;;3.13;0.90;;;26.30;53.60;;;;;;5057475;28;20017;-93
2022/07/16 12:30:52;;;;;;;4.05;0.90;;;26.40;53.50;;;;;;5054483;28;20036;-95
2022/07/16 12:33:24;;;;;;;3.50;0.98;;;26.40;53.30;;;;;;5053908;28;20025;-94
2022/07/16 12:36:06;;;;;;;4.15;1.08;;;26.50;53.30;;;;;;5054187;28;20025;-94
2022/07/16 12:38:58;;;;;;;4.90;1.08;;;26.50;53.30;;;;;;5054425;28;20044;-89
2022/07/16 12:41:29;;;;;;;23.98;2.72;;;26.60;53.20;;;;;;5055866;28;20033;-89
2022/07/16 12:44:02;;;;;;;5.18;1.25;;;26.60;52.90;;;;;;5053527;28;20356;-94
2022/07/16 12:46:31;;;;;;;5.30;1.20;;;26.60;52.90;;;;;;5056472;28;20017;-95
2022/07/16 12:49:00;;;;;;;4.95;1.30;;;26.70;53.00;;;;;;5052073;28;20478;-90
2022/07/16 12:51:31;;;;;;;3.25;0.90;;;26.70;53.40;;;;;;5053502;28;20055;-92
2022/07/16 12:53:58;;;;;;;5.00;1.30;;;26.80;52.90;;;;;;5056799;28;20036;-95
2022/07/16 12:59:10;;;;;;;3.78;1.65;;;26.90;52.20;;;;;;5054083;28;20124;-93